sensor_id;sensor_type;location;lat;lon;timestamp;P1;durP1;ratioP1;P2;durP2;ratioP2
62338;SDS011;48368;53.406;6.214;2023-04-03T00:01:13;3.92;;;1.10;;
62338;SDS011;48368;53.406;6.214;2023-04-03T00:03:39;5.05;;;1.20;;
62338;SDS011;48368;53.406;6.214;2023-04-03T00:06:06;4.30;;;1.50;;
62338;SDS011;48368;53.406;6.214;2023-04-03T00:08:33;5.43;;;1.48;;
62338;SDS011;48368;53.406;6.214;2023-04-03T00:11:00;3.22;;;1.10;;
62338;SDS011;48368;53.406;6.214;2023-04-03T00:13:26;3.67;;;1.20;;
62338;SDS011;48368;53.406;6.214;2023-04-03T00:15:52;2.50;;;1.25;;
62338;SDS011;48368;53.406;6.214;2023-04-03T00:18:17;3.33;;;1.15;;
62338;SDS011;48368;53.406;6.214;2023-04-03T00:20:43;3.30;;;1.20;;
62338;SDS011;48368;53.406;6.214;2023-04-03T00:23:09;3.28;;;1.60;;
62338;SDS011;48368;53.406;6.214;2023-04-03T00:25:35;3.88;;;1.27;;
62338;SDS011;48368;53.406;6.214;2023-04-03T00:28:01;8.43;;;1.60;;
62338;SDS011;48368;53.406;6.214;2023-04-03T00:30:27;4.15;;;1.00;;
62338;SDS011;48368;53.406;6.214;2023-04-03T00:32:53;6.43;;;1.70;;
62338;SDS011;48368;53.406;6.214;2023-04-03T00:35:19;3.03;;;1.17;;
62338;SDS011;48368;53.406;6.214;2023-04-03T00:37:46;2.08;;;1.02;;
62338;SDS011;48368;53.406;6.214;2023-04-03T00:40:13;4.03;;;1.42;;
62338;SDS011;48368;53.406;6.214;2023-04-03T00:42:41;3.88;;;1.38;;
62338;SDS011;48368;53.406;6.214;2023-04-03T00:47:43;2.65;;;1.13;;
62338;SDS011;48368;53.406;6.214;2023-04-03T00:50:09;3.15;;;1.05;;
62338;SDS011;48368;53.406;6.214;2023-04-03T00:52:35;2.75;;;1.00;;
62338;SDS011;48368;53.406;6.214;2023-04-03T00:55:04;3.03;;;1.02;;
62338;SDS011;48368;53.406;6.214;2023-04-03T00:57:32;2.58;;;1.05;;
62338;SDS011;48368;53.406;6.214;2023-04-03T01:00:04;3.85;;;1.30;;
62338;SDS011;48368;53.406;6.214;2023-04-03T01:02:36;3.60;;;1.00;;
62338;SDS011;48368;53.406;6.214;2023-04-03T01:05:03;3.15;;;0.90;;
62338;SDS011;48368;53.406;6.214;2023-04-03T01:07:30;4.15;;;1.20;;
62338;SDS011;48368;53.406;6.214;2023-04-03T01:09:57;1.88;;;0.63;;
62338;SDS011;48368;53.406;6.214;2023-04-03T01:12:35;2.97;;;1.17;;
62338;SDS011;48368;53.406;6.214;2023-04-03T01:15:05;3.83;;;1.20;;
62338;SDS011;48368;53.406;6.214;2023-04-03T01:17:40;2.33;;;0.90;;
62338;SDS011;48368;53.406;6.214;2023-04-03T01:28:07;4.53;;;1.08;;
62338;SDS011;48368;53.406;6.214;2023-04-03T01:30:42;5.57;;;1.10;;
62338;SDS011;48368;53.406;6.214;2023-04-03T01:33:22;4.13;;;1.08;;
62338;SDS011;48368;53.406;6.214;2023-04-03T01:35:48;3.92;;;1.00;;
62338;SDS011;48368;53.406;6.214;2023-04-03T01:38:14;3.20;;;0.70;;
62338;SDS011;48368;53.406;6.214;2023-04-03T01:40:40;2.30;;;0.93;;
62338;SDS011;48368;53.406;6.214;2023-04-03T01:43:05;5.35;;;1.33;;
62338;SDS011;48368;53.406;6.214;2023-04-03T01:45:31;4.57;;;0.93;;
62338;SDS011;48368;53.406;6.214;2023-04-03T01:47:56;5.65;;;1.13;;
62338;SDS011;48368;53.406;6.214;2023-04-03T01:50:22;1.63;;;0.77;;
62338;SDS011;48368;53.406;6.214;2023-04-03T01:52:48;2.60;;;0.60;;
62338;SDS011;48368;53.406;6.214;2023-04-03T01:55:13;3.17;;;1.13;;
62338;SDS011;48368;53.406;6.214;2023-04-03T01:57:40;3.15;;;0.95;;
62338;SDS011;48368;53.406;6.214;2023-04-03T02:00:05;5.80;;;0.98;;
62338;SDS011;48368;53.406;6.214;2023-04-03T02:02:33;4.75;;;1.23;;
62338;SDS011;48368;53.406;6.214;2023-04-03T02:04:58;5.18;;;2.05;;
62338;SDS011;48368;53.406;6.214;2023-04-03T02:07:24;4.90;;;1.17;;
62338;SDS011;48368;53.406;6.214;2023-04-03T02:09:50;4.07;;;1.13;;
62338;SDS011;48368;53.406;6.214;2023-04-03T02:12:15;4.03;;;0.85;;
62338;SDS011;48368;53.406;6.214;2023-04-03T02:14:41;3.22;;;1.15;;
62338;SDS011;48368;53.406;6.214;2023-04-03T02:17:07;4.10;;;0.98;;
62338;SDS011;48368;53.406;6.214;2023-04-03T02:19:36;3.72;;;1.00;;
62338;SDS011;48368;53.406;6.214;2023-04-03T02:22:02;2.13;;;1.10;;
62338;SDS011;48368;53.406;6.214;2023-04-03T02:24:28;6.18;;;1.00;;
62338;SDS011;48368;53.406;6.214;2023-04-03T02:26:54;6.55;;;1.20;;
62338;SDS011;48368;53.406;6.214;2023-04-03T02:29:21;5.28;;;1.10;;
62338;SDS011;48368;53.406;6.214;2023-04-03T02:31:46;5.93;;;1.20;;
62338;SDS011;48368;53.406;6.214;2023-04-03T02:34:12;4.05;;;1.75;;
62338;SDS011;48368;53.406;6.214;2023-04-03T02:36:38;3.35;;;1.38;;
62338;SDS011;48368;53.406;6.214;2023-04-03T02:39:03;6.65;;;1.50;;
62338;SDS011;48368;53.406;6.214;2023-04-03T02:41:30;3.25;;;1.70;;
62338;SDS011;48368;53.406;6.214;2023-04-03T02:44:04;5.38;;;1.40;;
62338;SDS011;48368;53.406;6.214;2023-04-03T02:46:30;5.47;;;1.10;;
62338;SDS011;48368;53.406;6.214;2023-04-03T02:48:57;4.28;;;1.48;;
62338;SDS011;48368;53.406;6.214;2023-04-03T02:51:22;5.03;;;1.10;;
62338;SDS011;48368;53.406;6.214;2023-04-03T02:53:48;5.07;;;1.20;;
62338;SDS011;48368;53.406;6.214;2023-04-03T02:56:14;5.28;;;1.50;;
62338;SDS011;48368;53.406;6.214;2023-04-03T02:58:42;4.45;;;1.40;;
62338;SDS011;48368;53.406;6.214;2023-04-03T03:01:08;5.97;;;1.25;;
62338;SDS011;48368;53.406;6.214;2023-04-03T03:03:37;8.35;;;1.58;;
62338;SDS011;48368;53.406;6.214;2023-04-03T03:08:29;5.38;;;1.27;;
62338;SDS011;48368;53.406;6.214;2023-04-03T03:10:55;6.30;;;1.30;;
62338;SDS011;48368;53.406;6.214;2023-04-03T03:13:20;4.28;;;1.27;;
62338;SDS011;48368;53.406;6.214;2023-04-03T03:15:46;3.80;;;1.48;;
62338;SDS011;48368;53.406;6.214;2023-04-03T03:18:12;5.43;;;1.30;;
62338;SDS011;48368;53.406;6.214;2023-04-03T03:20:37;5.95;;;1.40;;
62338;SDS011;48368;53.406;6.214;2023-04-03T03:23:03;3.60;;;1.40;;
62338;SDS011;48368;53.406;6.214;2023-04-03T03:25:28;3.30;;;1.40;;
62338;SDS011;48368;53.406;6.214;2023-04-03T03:27:54;5.85;;;1.63;;
62338;SDS011;48368;53.406;6.214;2023-04-03T03:30:20;4.75;;;1.27;;
62338;SDS011;48368;53.406;6.214;2023-04-03T03:32:45;3.95;;;1.30;;
62338;SDS011;48368;53.406;6.214;2023-04-03T03:35:11;5.20;;;1.40;;
62338;SDS011;48368;53.406;6.214;2023-04-03T03:37:37;3.83;;;1.40;;
62338;SDS011;48368;53.406;6.214;2023-04-03T03:40:02;7.13;;;2.00;;
62338;SDS011;48368;53.406;6.214;2023-04-03T03:42:28;6.43;;;1.90;;
62338;SDS011;48368;53.406;6.214;2023-04-03T03:44:54;8.00;;;1.60;;
62338;SDS011;48368;53.406;6.214;2023-04-03T03:47:20;4.40;;;1.60;;
62338;SDS011;48368;53.406;6.214;2023-04-03T03:49:45;3.80;;;1.45;;
62338;SDS011;48368;53.406;6.214;2023-04-03T03:52:11;4.22;;;1.30;;
62338;SDS011;48368;53.406;6.214;2023-04-03T03:54:37;6.65;;;1.35;;
62338;SDS011;48368;53.406;6.214;2023-04-03T03:57:03;4.63;;;1.45;;
62338;SDS011;48368;53.406;6.214;2023-04-03T03:59:28;3.95;;;1.58;;
62338;SDS011;48368;53.406;6.214;2023-04-03T04:01:54;8.00;;;1.40;;
62338;SDS011;48368;53.406;6.214;2023-04-03T04:04:20;8.63;;;1.95;;
62338;SDS011;48368;53.406;6.214;2023-04-03T04:06:46;7.30;;;1.83;;
62338;SDS011;48368;53.406;6.214;2023-04-03T04:09:11;4.80;;;1.73;;
62338;SDS011;48368;53.406;6.214;2023-04-03T04:11:38;4.88;;;1.70;;
62338;SDS011;48368;53.406;6.214;2023-04-03T04:14:04;5.03;;;2.22;;
62338;SDS011;48368;53.406;6.214;2023-04-03T04:16:31;7.32;;;1.77;;
62338;SDS011;48368;53.406;6.214;2023-04-03T04:18:56;5.70;;;1.63;;
62338;SDS011;48368;53.406;6.214;2023-04-03T04:21:22;7.32;;;1.80;;
62338;SDS011;48368;53.406;6.214;2023-04-03T04:23:47;7.03;;;1.90;;
62338;SDS011;48368;53.406;6.214;2023-04-03T04:26:13;11.55;;;2.05;;
62338;SDS011;48368;53.406;6.214;2023-04-03T04:28:39;8.23;;;2.65;;
62338;SDS011;48368;53.406;6.214;2023-04-03T04:31:07;6.07;;;2.10;;
62338;SDS011;48368;53.406;6.214;2023-04-03T04:33:35;10.02;;;1.98;;
62338;SDS011;48368;53.406;6.214;2023-04-03T04:36:00;7.00;;;2.53;;
62338;SDS011;48368;53.406;6.214;2023-04-03T04:38:26;6.43;;;1.73;;
62338;SDS011;48368;53.406;6.214;2023-04-03T04:40:52;5.07;;;1.85;;
62338;SDS011;48368;53.406;6.214;2023-04-03T04:43:17;7.35;;;1.90;;
62338;SDS011;48368;53.406;6.214;2023-04-03T04:45:43;6.25;;;1.65;;
62338;SDS011;48368;53.406;6.214;2023-04-03T04:48:08;6.60;;;2.08;;
62338;SDS011;48368;53.406;6.214;2023-04-03T04:50:34;6.15;;;1.73;;
62338;SDS011;48368;53.406;6.214;2023-04-03T04:53:00;5.22;;;2.38;;
62338;SDS011;48368;53.406;6.214;2023-04-03T04:55:25;4.95;;;1.85;;
62338;SDS011;48368;53.406;6.214;2023-04-03T04:57:51;6.55;;;1.90;;
62338;SDS011;48368;53.406;6.214;2023-04-03T05:00:17;7.18;;;2.35;;
62338;SDS011;48368;53.406;6.214;2023-04-03T05:02:43;5.10;;;1.75;;
62338;SDS011;48368;53.406;6.214;2023-04-03T05:05:08;7.82;;;2.33;;
62338;SDS011;48368;53.406;6.214;2023-04-03T05:07:34;12.43;;;2.05;;
62338;SDS011;48368;53.406;6.214;2023-04-03T05:10:00;7.20;;;2.03;;
62338;SDS011;48368;53.406;6.214;2023-04-03T05:12:27;6.60;;;2.63;;
62338;SDS011;48368;53.406;6.214;2023-04-03T05:14:53;6.55;;;2.28;;
62338;SDS011;48368;53.406;6.214;2023-04-03T05:17:19;8.05;;;3.17;;
62338;SDS011;48368;53.406;6.214;2023-04-03T05:19:45;8.23;;;2.50;;
62338;SDS011;48368;53.406;6.214;2023-04-03T05:22:10;8.52;;;1.95;;
62338;SDS011;48368;53.406;6.214;2023-04-03T05:24:36;5.50;;;2.03;;
62338;SDS011;48368;53.406;6.214;2023-04-03T05:27:02;8.10;;;2.65;;
62338;SDS011;48368;53.406;6.214;2023-04-03T05:29:31;6.68;;;2.15;;
62338;SDS011;48368;53.406;6.214;2023-04-03T05:31:59;7.30;;;2.38;;
62338;SDS011;48368;53.406;6.214;2023-04-03T05:34:25;9.25;;;2.90;;
62338;SDS011;48368;53.406;6.214;2023-04-03T05:36:51;6.55;;;2.65;;
62338;SDS011;48368;53.406;6.214;2023-04-03T05:39:16;9.45;;;3.25;;
62338;SDS011;48368;53.406;6.214;2023-04-03T05:41:42;9.75;;;3.75;;
62338;SDS011;48368;53.406;6.214;2023-04-03T05:44:07;8.23;;;2.63;;
62338;SDS011;48368;53.406;6.214;2023-04-03T05:46:33;8.85;;;2.65;;
62338;SDS011;48368;53.406;6.214;2023-04-03T05:48:59;9.05;;;2.78;;
62338;SDS011;48368;53.406;6.214;2023-04-03T05:51:27;6.70;;;2.40;;
62338;SDS011;48368;53.406;6.214;2023-04-03T05:54:08;12.63;;;3.15;;
62338;SDS011;48368;53.406;6.214;2023-04-03T05:56:39;8.93;;;2.08;;
62338;SDS011;48368;53.406;6.214;2023-04-03T05:59:04;10.52;;;4.03;;
62338;SDS011;48368;53.406;6.214;2023-04-03T06:01:30;7.25;;;2.60;;
62338;SDS011;48368;53.406;6.214;2023-04-03T06:03:56;6.78;;;2.35;;
62338;SDS011;48368;53.406;6.214;2023-04-03T06:06:23;6.50;;;2.17;;
62338;SDS011;48368;53.406;6.214;2023-04-03T06:08:49;11.52;;;2.65;;
62338;SDS011;48368;53.406;6.214;2023-04-03T06:11:18;5.07;;;2.35;;
62338;SDS011;48368;53.406;6.214;2023-04-03T06:13:44;7.63;;;2.63;;
62338;SDS011;48368;53.406;6.214;2023-04-03T06:16:13;7.75;;;2.47;;
62338;SDS011;48368;53.406;6.214;2023-04-03T06:18:40;11.85;;;4.15;;
62338;SDS011;48368;53.406;6.214;2023-04-03T06:21:06;8.85;;;2.70;;
62338;SDS011;48368;53.406;6.214;2023-04-03T06:23:33;7.15;;;2.55;;
62338;SDS011;48368;53.406;6.214;2023-04-03T06:25:58;9.80;;;2.88;;
62338;SDS011;48368;53.406;6.214;2023-04-03T06:28:25;6.07;;;2.92;;
62338;SDS011;48368;53.406;6.214;2023-04-03T06:30:52;7.40;;;2.58;;
62338;SDS011;48368;53.406;6.214;2023-04-03T06:33:17;6.70;;;3.55;;
62338;SDS011;48368;53.406;6.214;2023-04-03T06:35:43;7.93;;;3.75;;
62338;SDS011;48368;53.406;6.214;2023-04-03T06:38:08;7.05;;;2.90;;
62338;SDS011;48368;53.406;6.214;2023-04-03T06:40:35;7.10;;;2.75;;
62338;SDS011;48368;53.406;6.214;2023-04-03T06:43:01;7.93;;;2.65;;
62338;SDS011;48368;53.406;6.214;2023-04-03T06:45:27;11.02;;;2.70;;
62338;SDS011;48368;53.406;6.214;2023-04-03T06:47:52;6.32;;;2.28;;
62338;SDS011;48368;53.406;6.214;2023-04-03T06:50:18;6.72;;;2.53;;
62338;SDS011;48368;53.406;6.214;2023-04-03T06:52:44;8.60;;;2.20;;
62338;SDS011;48368;53.406;6.214;2023-04-03T06:55:10;7.65;;;2.30;;
62338;SDS011;48368;53.406;6.214;2023-04-03T06:57:36;8.07;;;2.05;;
62338;SDS011;48368;53.406;6.214;2023-04-03T07:00:02;9.23;;;2.20;;
62338;SDS011;48368;53.406;6.214;2023-04-03T07:02:29;5.60;;;2.40;;
62338;SDS011;48368;53.406;6.214;2023-04-03T07:04:55;5.90;;;1.73;;
62338;SDS011;48368;53.406;6.214;2023-04-03T07:07:20;6.10;;;2.10;;
62338;SDS011;48368;53.406;6.214;2023-04-03T07:09:47;7.90;;;2.30;;
62338;SDS011;48368;53.406;6.214;2023-04-03T07:12:13;7.07;;;2.05;;
62338;SDS011;48368;53.406;6.214;2023-04-03T07:14:38;4.32;;;1.83;;
62338;SDS011;48368;53.406;6.214;2023-04-03T07:17:04;6.95;;;2.05;;
62338;SDS011;48368;53.406;6.214;2023-04-03T07:19:30;6.78;;;1.60;;
62338;SDS011;48368;53.406;6.214;2023-04-03T07:21:56;4.88;;;1.80;;
62338;SDS011;48368;53.406;6.214;2023-04-03T07:24:22;5.63;;;1.88;;
62338;SDS011;48368;53.406;6.214;2023-04-03T07:26:52;6.22;;;1.75;;
62338;SDS011;48368;53.406;6.214;2023-04-03T07:29:20;5.47;;;2.03;;
62338;SDS011;48368;53.406;6.214;2023-04-03T07:31:46;8.18;;;2.08;;
62338;SDS011;48368;53.406;6.214;2023-04-03T07:34:12;8.25;;;1.80;;
62338;SDS011;48368;53.406;6.214;2023-04-03T07:36:38;4.72;;;1.73;;
62338;SDS011;48368;53.406;6.214;2023-04-03T07:39:04;8.98;;;2.80;;
62338;SDS011;48368;53.406;6.214;2023-04-03T07:41:33;4.43;;;1.60;;
62338;SDS011;48368;53.406;6.214;2023-04-03T07:43:58;4.75;;;1.58;;
62338;SDS011;48368;53.406;6.214;2023-04-03T07:46:24;5.50;;;1.70;;
62338;SDS011;48368;53.406;6.214;2023-04-03T07:48:51;8.48;;;2.30;;
62338;SDS011;48368;53.406;6.214;2023-04-03T07:51:16;4.38;;;1.90;;
62338;SDS011;48368;53.406;6.214;2023-04-03T07:53:55;6.80;;;1.88;;
62338;SDS011;48368;53.406;6.214;2023-04-03T07:56:20;6.80;;;2.30;;
62338;SDS011;48368;53.406;6.214;2023-04-03T07:58:47;6.50;;;1.80;;
62338;SDS011;48368;53.406;6.214;2023-04-03T08:01:13;5.55;;;1.40;;
62338;SDS011;48368;53.406;6.214;2023-04-03T08:03:39;6.93;;;1.58;;
62338;SDS011;48368;53.406;6.214;2023-04-03T08:06:06;5.88;;;1.63;;
62338;SDS011;48368;53.406;6.214;2023-04-03T08:08:32;7.70;;;1.95;;
62338;SDS011;48368;53.406;6.214;2023-04-03T08:10:59;4.38;;;1.60;;
62338;SDS011;48368;53.406;6.214;2023-04-03T08:13:25;8.80;;;1.70;;
62338;SDS011;48368;53.406;6.214;2023-04-03T08:15:51;5.93;;;1.60;;
62338;SDS011;48368;53.406;6.214;2023-04-03T08:18:17;5.95;;;1.88;;
62338;SDS011;48368;53.406;6.214;2023-04-03T08:20:49;5.35;;;1.63;;
62338;SDS011;48368;53.406;6.214;2023-04-03T08:23:15;4.70;;;1.33;;
62338;SDS011;48368;53.406;6.214;2023-04-03T08:25:42;5.25;;;1.50;;
62338;SDS011;48368;53.406;6.214;2023-04-03T08:28:10;7.03;;;1.83;;
62338;SDS011;48368;53.406;6.214;2023-04-03T08:30:41;7.47;;;1.83;;
62338;SDS011;48368;53.406;6.214;2023-04-03T08:33:07;4.97;;;1.70;;
62338;SDS011;48368;53.406;6.214;2023-04-03T08:35:37;4.50;;;1.80;;
62338;SDS011;48368;53.406;6.214;2023-04-03T08:38:07;5.95;;;1.45;;
62338;SDS011;48368;53.406;6.214;2023-04-03T08:40:34;4.25;;;1.67;;
62338;SDS011;48368;53.406;6.214;2023-04-03T08:45:55;4.32;;;1.80;;
62338;SDS011;48368;53.406;6.214;2023-04-03T08:48:35;6.80;;;2.45;;
62338;SDS011;48368;53.406;6.214;2023-04-03T08:51:04;2.85;;;1.08;;
62338;SDS011;48368;53.406;6.214;2023-04-03T08:53:42;3.72;;;1.30;;
62338;SDS011;48368;53.406;6.214;2023-04-03T08:56:15;5.53;;;1.38;;
62338;SDS011;48368;53.406;6.214;2023-04-03T08:58:48;5.18;;;1.10;;
62338;SDS011;48368;53.406;6.214;2023-04-03T09:04:00;3.78;;;1.20;;
62338;SDS011;48368;53.406;6.214;2023-04-03T09:06:27;2.63;;;1.17;;
62338;SDS011;48368;53.406;6.214;2023-04-03T09:16:55;5.68;;;1.65;;
62338;SDS011;48368;53.406;6.214;2023-04-03T09:24:48;3.72;;;1.17;;
62338;SDS011;48368;53.406;6.214;2023-04-03T09:27:20;4.57;;;1.38;;
62338;SDS011;48368;53.406;6.214;2023-04-03T09:29:54;5.22;;;1.30;;
62338;SDS011;48368;53.406;6.214;2023-04-03T09:32:25;4.13;;;0.80;;
62338;SDS011;48368;53.406;6.214;2023-04-03T09:34:56;4.07;;;0.82;;
62338;SDS011;48368;53.406;6.214;2023-04-03T09:37:37;3.42;;;0.93;;
62338;SDS011;48368;53.406;6.214;2023-04-03T09:40:06;2.92;;;0.90;;
62338;SDS011;48368;53.406;6.214;2023-04-03T09:42:55;3.28;;;1.10;;
62338;SDS011;48368;53.406;6.214;2023-04-03T09:45:23;2.72;;;0.82;;
62338;SDS011;48368;53.406;6.214;2023-04-03T09:48:05;4.28;;;0.80;;
62338;SDS011;48368;53.406;6.214;2023-04-03T09:50:34;2.70;;;0.70;;
62338;SDS011;48368;53.406;6.214;2023-04-03T09:53:05;3.33;;;0.80;;
62338;SDS011;48368;53.406;6.214;2023-04-03T09:55:50;4.85;;;0.80;;
62338;SDS011;48368;53.406;6.214;2023-04-03T10:01:06;2.63;;;0.63;;
62338;SDS011;48368;53.406;6.214;2023-04-03T10:06:51;4.38;;;0.80;;
62338;SDS011;48368;53.406;6.214;2023-04-03T10:09:26;3.08;;;0.93;;
62338;SDS011;48368;53.406;6.214;2023-04-03T10:14:53;2.45;;;0.65;;
62338;SDS011;48368;53.406;6.214;2023-04-03T10:17:30;3.00;;;0.77;;
62338;SDS011;48368;53.406;6.214;2023-04-03T10:22:43;3.22;;;1.10;;
62338;SDS011;48368;53.406;6.214;2023-04-03T10:25:25;2.83;;;0.75;;
62338;SDS011;48368;53.406;6.214;2023-04-03T10:31:02;2.40;;;0.60;;
62338;SDS011;48368;53.406;6.214;2023-04-03T10:36:46;3.20;;;0.80;;
62338;SDS011;48368;53.406;6.214;2023-04-03T10:42:04;3.17;;;0.90;;
62338;SDS011;48368;53.406;6.214;2023-04-03T10:44:59;4.03;;;0.90;;
62338;SDS011;48368;53.406;6.214;2023-04-03T10:47:47;3.35;;;0.80;;
62338;SDS011;48368;53.406;6.214;2023-04-03T10:51:04;2.85;;;0.85;;
62338;SDS011;48368;53.406;6.214;2023-04-03T10:53:52;4.50;;;1.33;;
62338;SDS011;48368;53.406;6.214;2023-04-03T10:56:31;2.88;;;0.73;;
62338;SDS011;48368;53.406;6.214;2023-04-03T11:01:43;2.65;;;0.90;;
62338;SDS011;48368;53.406;6.214;2023-04-03T11:04:12;6.25;;;1.33;;
62338;SDS011;48368;53.406;6.214;2023-04-03T11:06:43;3.97;;;1.20;;
62338;SDS011;48368;53.406;6.214;2023-04-03T11:11:51;3.45;;;1.05;;
62338;SDS011;48368;53.406;6.214;2023-04-03T11:14:28;3.78;;;1.15;;
62338;SDS011;48368;53.406;6.214;2023-04-03T11:17:09;3.15;;;0.70;;
62338;SDS011;48368;53.406;6.214;2023-04-03T11:24:46;2.80;;;1.00;;
62338;SDS011;48368;53.406;6.214;2023-04-03T11:27:48;2.85;;;1.13;;
62338;SDS011;48368;53.406;6.214;2023-04-03T11:30:22;2.45;;;0.80;;
62338;SDS011;48368;53.406;6.214;2023-04-03T11:35:44;2.63;;;1.17;;
62338;SDS011;48368;53.406;6.214;2023-04-03T11:38:21;4.05;;;1.15;;
62338;SDS011;48368;53.406;6.214;2023-04-03T11:40:56;5.37;;;1.00;;
62338;SDS011;48368;53.406;6.214;2023-04-03T11:43:30;1.90;;;0.95;;
62338;SDS011;48368;53.406;6.214;2023-04-03T11:45:58;2.42;;;0.60;;
62338;SDS011;48368;53.406;6.214;2023-04-03T11:53:37;2.65;;;1.13;;
62338;SDS011;48368;53.406;6.214;2023-04-03T12:01:54;1.70;;;0.65;;
62338;SDS011;48368;53.406;6.214;2023-04-03T12:04:25;6.40;;;0.70;;
62338;SDS011;48368;53.406;6.214;2023-04-03T12:06:53;3.45;;;0.90;;
62338;SDS011;48368;53.406;6.214;2023-04-03T12:09:31;1.95;;;0.75;;
62338;SDS011;48368;53.406;6.214;2023-04-03T12:12:00;2.17;;;0.70;;
62338;SDS011;48368;53.406;6.214;2023-04-03T12:14:46;4.90;;;0.90;;
62338;SDS011;48368;53.406;6.214;2023-04-03T12:17:18;2.22;;;0.60;;
62338;SDS011;48368;53.406;6.214;2023-04-03T12:19:49;3.63;;;1.00;;
62338;SDS011;48368;53.406;6.214;2023-04-03T12:22:16;2.90;;;0.80;;
62338;SDS011;48368;53.406;6.214;2023-04-03T12:24:46;2.17;;;0.70;;
62338;SDS011;48368;53.406;6.214;2023-04-03T12:30:13;4.07;;;1.02;;
62338;SDS011;48368;53.406;6.214;2023-04-03T12:35:36;5.15;;;0.80;;
62338;SDS011;48368;53.406;6.214;2023-04-03T12:41:01;4.03;;;0.90;;
62338;SDS011;48368;53.406;6.214;2023-04-03T12:48:47;4.22;;;0.95;;
62338;SDS011;48368;53.406;6.214;2023-04-03T12:51:19;3.45;;;1.23;;
62338;SDS011;48368;53.406;6.214;2023-04-03T12:53:46;2.72;;;0.82;;
62338;SDS011;48368;53.406;6.214;2023-04-03T12:56:24;4.65;;;0.80;;
62338;SDS011;48368;53.406;6.214;2023-04-03T12:58:55;3.30;;;0.70;;
62338;SDS011;48368;53.406;6.214;2023-04-03T13:01:41;2.97;;;1.10;;
62338;SDS011;48368;53.406;6.214;2023-04-03T13:04:09;4.57;;;0.90;;
62338;SDS011;48368;53.406;6.214;2023-04-03T13:06:41;6.80;;;1.17;;
62338;SDS011;48368;53.406;6.214;2023-04-03T13:09:27;3.40;;;1.02;;
62338;SDS011;48368;53.406;6.214;2023-04-03T13:11:56;2.63;;;1.00;;
62338;SDS011;48368;53.406;6.214;2023-04-03T13:14:26;4.97;;;1.05;;
62338;SDS011;48368;53.406;6.214;2023-04-03T13:17:05;4.20;;;0.98;;
62338;SDS011;48368;53.406;6.214;2023-04-03T13:19:37;3.60;;;0.80;;
62338;SDS011;48368;53.406;6.214;2023-04-03T13:22:05;2.88;;;1.00;;
62338;SDS011;48368;53.406;6.214;2023-04-03T13:25:09;2.60;;;0.90;;
62338;SDS011;48368;53.406;6.214;2023-04-03T13:27:38;2.85;;;0.80;;
62338;SDS011;48368;53.406;6.214;2023-04-03T13:30:17;4.55;;;1.10;;
62338;SDS011;48368;53.406;6.214;2023-04-03T13:32:59;4.43;;;1.20;;
62338;SDS011;48368;53.406;6.214;2023-04-03T13:35:34;3.95;;;1.40;;
62338;SDS011;48368;53.406;6.214;2023-04-03T13:38:04;3.92;;;1.02;;
62338;SDS011;48368;53.406;6.214;2023-04-03T13:40:54;4.13;;;1.23;;
62338;SDS011;48368;53.406;6.214;2023-04-03T13:43:23;3.28;;;0.90;;
62338;SDS011;48368;53.406;6.214;2023-04-03T13:45:55;3.00;;;0.95;;
62338;SDS011;48368;53.406;6.214;2023-04-03T13:53:47;3.90;;;1.40;;
62338;SDS011;48368;53.406;6.214;2023-04-03T13:56:17;3.47;;;0.90;;
62338;SDS011;48368;53.406;6.214;2023-04-03T13:58:57;3.00;;;1.20;;
62338;SDS011;48368;53.406;6.214;2023-04-03T14:06:52;5.57;;;1.38;;
62338;SDS011;48368;53.406;6.214;2023-04-03T14:09:19;4.45;;;1.38;;
62338;SDS011;48368;53.406;6.214;2023-04-03T14:11:46;6.40;;;1.50;;
62338;SDS011;48368;53.406;6.214;2023-04-03T14:14:18;3.17;;;1.05;;
62338;SDS011;48368;53.406;6.214;2023-04-03T14:16:52;6.70;;;1.38;;
62338;SDS011;48368;53.406;6.214;2023-04-03T14:19:23;8.30;;;1.42;;
62338;SDS011;48368;53.406;6.214;2023-04-03T14:21:57;4.38;;;1.23;;
62338;SDS011;48368;53.406;6.214;2023-04-03T14:24:24;5.57;;;1.23;;
62338;SDS011;48368;53.406;6.214;2023-04-03T14:26:53;2.75;;;0.85;;
62338;SDS011;48368;53.406;6.214;2023-04-03T14:29:20;4.65;;;1.27;;
62338;SDS011;48368;53.406;6.214;2023-04-03T14:31:47;4.95;;;0.93;;
62338;SDS011;48368;53.406;6.214;2023-04-03T14:34:14;4.18;;;1.15;;
62338;SDS011;48368;53.406;6.214;2023-04-03T14:36:41;4.07;;;0.57;;
62338;SDS011;48368;53.406;6.214;2023-04-03T14:39:11;2.28;;;0.40;;
62338;SDS011;48368;53.406;6.214;2023-04-03T14:44:07;2.00;;;0.93;;
62338;SDS011;48368;53.406;6.214;2023-04-03T14:46:34;3.35;;;0.45;;
62338;SDS011;48368;53.406;6.214;2023-04-03T14:49:03;2.38;;;0.63;;
62338;SDS011;48368;53.406;6.214;2023-04-03T14:51:37;1.85;;;0.43;;
62338;SDS011;48368;53.406;6.214;2023-04-03T14:54:02;2.70;;;0.47;;
62338;SDS011;48368;53.406;6.214;2023-04-03T14:56:28;1.35;;;0.40;;
62338;SDS011;48368;53.406;6.214;2023-04-03T14:58:58;2.50;;;0.50;;
62338;SDS011;48368;53.406;6.214;2023-04-03T15:01:25;3.65;;;0.50;;
62338;SDS011;48368;53.406;6.214;2023-04-03T15:03:52;1.73;;;0.45;;
62338;SDS011;48368;53.406;6.214;2023-04-03T15:06:17;3.33;;;0.40;;
62338;SDS011;48368;53.406;6.214;2023-04-03T15:08:44;8.32;;;0.73;;
62338;SDS011;48368;53.406;6.214;2023-04-03T15:11:12;1.65;;;0.40;;
62338;SDS011;48368;53.406;6.214;2023-04-03T15:13:38;3.10;;;0.40;;
62338;SDS011;48368;53.406;6.214;2023-04-03T15:16:05;3.28;;;0.60;;
62338;SDS011;48368;53.406;6.214;2023-04-03T15:18:37;0.98;;;0.30;;
62338;SDS011;48368;53.406;6.214;2023-04-03T15:21:03;1.17;;;0.52;;
62338;SDS011;48368;53.406;6.214;2023-04-03T15:23:29;1.73;;;0.40;;
62338;SDS011;48368;53.406;6.214;2023-04-03T15:25:55;3.58;;;0.68;;
62338;SDS011;48368;53.406;6.214;2023-04-03T15:28:30;1.25;;;0.50;;
62338;SDS011;48368;53.406;6.214;2023-04-03T15:31:03;2.88;;;1.05;;
62338;SDS011;48368;53.406;6.214;2023-04-03T15:33:30;3.28;;;0.70;;
62338;SDS011;48368;53.406;6.214;2023-04-03T15:35:56;1.58;;;0.57;;
62338;SDS011;48368;53.406;6.214;2023-04-03T15:38:22;3.67;;;0.55;;
62338;SDS011;48368;53.406;6.214;2023-04-03T15:40:48;2.97;;;0.60;;
62338;SDS011;48368;53.406;6.214;2023-04-03T15:43:14;4.32;;;0.80;;
62338;SDS011;48368;53.406;6.214;2023-04-03T15:45:40;2.13;;;0.50;;
62338;SDS011;48368;53.406;6.214;2023-04-03T15:48:06;1.88;;;0.60;;
62338;SDS011;48368;53.406;6.214;2023-04-03T15:50:33;2.30;;;0.70;;
62338;SDS011;48368;53.406;6.214;2023-04-03T15:52:59;3.03;;;0.68;;
62338;SDS011;48368;53.406;6.214;2023-04-03T15:55:27;3.95;;;0.90;;
62338;SDS011;48368;53.406;6.214;2023-04-03T15:57:55;3.38;;;1.00;;
62338;SDS011;48368;53.406;6.214;2023-04-03T16:00:21;2.70;;;0.88;;
62338;SDS011;48368;53.406;6.214;2023-04-03T16:02:49;2.53;;;0.70;;
62338;SDS011;48368;53.406;6.214;2023-04-03T16:05:17;4.20;;;0.90;;
62338;SDS011;48368;53.406;6.214;2023-04-03T16:07:44;2.85;;;0.60;;
62338;SDS011;48368;53.406;6.214;2023-04-03T16:10:11;1.77;;;0.60;;
62338;SDS011;48368;53.406;6.214;2023-04-03T16:12:37;3.72;;;0.60;;
62338;SDS011;48368;53.406;6.214;2023-04-03T16:15:03;3.35;;;0.80;;
62338;SDS011;48368;53.406;6.214;2023-04-03T16:17:31;4.25;;;0.70;;
62338;SDS011;48368;53.406;6.214;2023-04-03T16:19:57;4.88;;;1.10;;
62338;SDS011;48368;53.406;6.214;2023-04-03T16:22:24;2.80;;;0.70;;
62338;SDS011;48368;53.406;6.214;2023-04-03T16:24:51;3.03;;;0.73;;
62338;SDS011;48368;53.406;6.214;2023-04-03T16:27:21;2.67;;;0.70;;
62338;SDS011;48368;53.406;6.214;2023-04-03T16:29:52;3.03;;;1.00;;
62338;SDS011;48368;53.406;6.214;2023-04-03T16:32:19;3.53;;;0.80;;
62338;SDS011;48368;53.406;6.214;2023-04-03T16:34:45;2.60;;;0.60;;
62338;SDS011;48368;53.406;6.214;2023-04-03T16:37:11;3.63;;;1.02;;
62338;SDS011;48368;53.406;6.214;2023-04-03T16:39:36;2.60;;;0.85;;
62338;SDS011;48368;53.406;6.214;2023-04-03T16:42:03;4.68;;;0.68;;